AirNav   Air Wisconsin Up To $57,000 Bonus
 
 1359 users online  

XS66 Rabb Dusting Inc Airport
Robstown, Texas, USA

GOING TO ROBSTOWN?


FAA INFORMATION EFFECTIVE 31 DECEMBER 2020

Location

FAA Identifier: XS66
Lat/Long: 27-48-14.0870N 097-44-36.9870W
27-48.234783N 097-44.616450W
27.8039131,-97.7436075
(estimated)
Elevation: 83 ft. / 25 m (estimated)
Variation: 07E (1985)
From city: 3 miles W of ROBSTOWN, TX
Time zone: UTC -6 (UTC -5 during Daylight Saving Time)
Zip code: 78380

Airport Operations

Airport use: Private use. Permission required prior to landing
Activation date: 11/2004
Control tower: no
ARTCC: HOUSTON CENTER
FSS: SAN ANGELO FLIGHT SERVICE STATION
Attendance: DAYLIGHT HOURS
Wind indicator: yes
Segmented circle: no

Airport Communications

WX AWOS-3 at RBO (3 nm SE): 118.175 (361-767-1982)
WX ASOS at CRP (13 nm E): PHONE 361-289-0191
WX ASOS at ALI (16 nm W): 119.225 (361-668-0069)
WX AWOS-3 at T69 (18 nm NE): 118.25 (361-364-1844)

Nearby radio navigation aids

VOR radial/distance  VOR name  Freq  Var
ALIr069/(15.2)ALICE VOR114.5006E
CRPr240/16.9CORPUS CHRISTI VORTAC115.5009E

Airport Services

Runway Information

Runway 18/36

Dimensions: 2200 x 25 ft. / 671 x 8 m
Surface: asphalt
Runway edge lights: low intensity
RUNWAY 18  RUNWAY 36
Traffic pattern: leftleft
Displaced threshold: 300 ft.no
Obstructions: nonepline, marked, 400 ft. from runway

Runway 16/34

Dimensions: 2000 x 35 ft. / 610 x 11 m
Surface: gravel
RUNWAY 16  RUNWAY 34
Traffic pattern: leftleft

Airport Ownership and Management from official FAA records

Ownership: Privately-owned
Owner: SHORES AG-AIR INC.
P.O. BOX 967
ROBSTOWN, TX 78380
Phone 361-387-9090
Manager: KENNETH 'ED' & BRANDALYN
P.O. BOX 967
ROBSTOWN, TX 78380
Phone 361-387-9090

Airport Operational Statistics

Aircraft based on the field: 6
Single engine airplanes: 6
    

Additional Remarks

STORAGE TANKS NEAR RWY 36.
FOR CD CTC CORPUS CHRISTI APCH AT 361-299-4230.

Instrument Procedures

There are no published instrument procedures at XS66.

Some nearby airports with instrument procedures:

KRBO - Nueces County Airport (3 nm SE)
KCRP - Corpus Christi International Airport (13 nm E)
KALI - Alice International Airport (16 nm W)
KNOG - Orange Grove Naval Auxiliary Field (17 nm W)
T69 - Alfred C 'Bubba' Thomas Airport (18 nm NE)
KNQI - Kingsville Naval Air Station (18 nm S)
 
Loc | Ops | Rwys | IFR | FBO | Links
Com | Nav | Svcs | Stats | Notes
Area around XS66 (Rabb Dusting Inc Airport)
 
Road maps at: MapQuest Bing Google
 
Aerial photo
No photo
 
Sectional chart

 
Airport distance calculator
Flying to Rabb Dusting Inc Airport? Find the distance to fly.

From to XS66

Sunrise and sunset
Times for 18-Jan-2021
 Local
(UTC-6)
 Zulu
(UTC)
Morning civil twilight06:5912:59
Sunrise07:2413:24
Sunset17:5923:59
Evening civil twilight18:2400:24

Current date and time
Zulu (UTC)  18-Jan-2021 18:16:25
Local (UTC-6)  18-Jan-2021 12:16:25
 
METAR
KRBO 
3nm SE 
181755Z AUTO 19017KT 10SM SCT020 BKN028 24/18 A3003 RMK AO2 T02440181 10244 20131
KCRP 
13nm E 
181751Z 18015G23KT 10SM FEW018 BKN021 BKN027 23/17 A3003 RMK AO2 SLP167 T02280172 10228 20106 58012
KNOG 
17nm W 
181756Z AUTO 20015KT 10SM FEW024 A3001 RMK AO2 SLPNO 6//// 58017 PWINO FZRANO PNO $
KT69 
18nm NE 
181755Z AUTO 21011KT 10SM FEW021 SCT027 BKN032 23/17 A3002 RMK A01
KNQI 
19nm S 
181756Z AUTO 18017G23KT 10SM FEW023 SCT029 25/16 A3001 RMK AO2 SLP157 T02500161 10256 20094 58017 $
TAF
KCRP 
13nm E 
181737Z 1818/1918 17018G28KT P6SM BKN020 TEMPO 1820/1824 SCT025 BKN035 FM190900 15013KT P6SM OVC020 FM191600 15016G24KT P6SM VCSH SCT020 BKN040
KALI 
15nm W 
181737Z 1818/1918 17015G22KT P6SM SCT040 FM190500 15012KT P6SM BKN030 FM190800 15010KT P6SM OVC020 FM191500 15013KT P6SM VCSH OVC015 AMD NOT SKED
NOTAMs
Click for the latest NOTAMs
NOTAMs are issued by the DoD/FAA and will open in a separate window not controlled by AirNav.

 

 
 

Would you like to see your business listed on this page?

 If your business provides an interesting product or service to pilots, flight crews, aircraft, or users of the Rabb Dusting Inc Airport, you should consider listing it here.  To start the listing process, click on the button below
 
Add a business
 

Other Pages about Rabb Dusting Inc Airport

Update a link
 
Copyright © AirNav, LLC. All rights reserved. Privacy Policy  Contact